Flight Track Log - Related Links

Times and Time Zones

All times are in EDT time to prevent confusion due to time zone crossing. See the VH-YRE flight status page for this flight to view local times or setup timezone preferences in your user account.

Time Position Orientation Groundspeed Altitude Reporting Facility
EDT Latitude Longitude Course Direction KTS MPH feet Rate Location/Type
Fri 11:41:18 PM -27.1673 153.0394 322° Northwest 104 120 1,800  Level Aus ATC (RADAR)
Fri 11:43:23 PM -27.1223 153.0003 322° Northwest 92 106 3,100 418 Climbing Aus ATC (RADAR)
Fri 11:45:22 PM -27.0722 152.9620 326° Northwest 121 139 3,500 100 Climbing Aus ATC (RADAR)
Fri 11:47:22 PM -27.0199 152.9181 323° Northwest 120 138 3,500  Level Aus ATC (RADAR)
Fri 11:49:22 PM -26.9651 152.8757 325° Northwest 116 133 3,500  Level Aus ATC (RADAR)
Fri 11:51:02 PM -26.9203 152.8379 323° Northwest 119 137 3,500  Level Aus ATC (RADAR)
Fri 11:53:12 PM -26.8679 152.7756 313° West 121 139 3,500  Level Aus ATC (RADAR)
Fri 11:55:17 PM -26.8178 152.7122 312° West 131 151 3,500  Level Aus ATC (RADAR)
Fri 11:57:06 PM -26.7621 152.6790 332° Northwest 126 145 3,500  Level Aus ATC (RADAR)
Fri 11:59:21 PM -26.6886 152.6527 342° North 121 139 3,500 165 Level Aus ATC (RADAR)
Sat 12:01:21 AM -26.6318 152.6183 332° Northwest 103 119 4,200 269 Climbing Aus ATC (RADAR)
Sat 12:03:26 AM -26.5940 152.5540 303° West 127 146 4,600 -69 Climbing Aus ATC (RADAR)
Sat 12:05:41 AM -26.5484 152.4821 305° West 129 148 3,900 -145 Descending Aus ATC (RADAR)
Sat 12:07:35 AM -26.5019 152.4374 319° Northwest 120 138 4,000 27 Climbing Aus ATC (RADAR)
Sat 12:09:25 AM -26.4628 152.4615 29° Northeast 112 129 4,000  Level Aus ATC (RADAR)
Sat 12:10:00 AM -26.4578 152.4789 72° East 105 121 4,000  Level Aus ATC (RADAR)
Sat 12:13:30 AM -26.4338 152.5586 71° East 80 92 4,000  Level Aus ATC (RADAR)
Sat 12:15:25 AM -26.4333 152.6111 89° East 90 104 4,000 -47 Level Aus ATC (RADAR)
Sat 12:17:44 AM -26.4219 152.6765 79° East 94 108 3,800 -136 Descending Aus ATC (RADAR)
Sat 12:19:49 AM -26.4147 152.7368 82° East 91 105 3,400 -77 Descending Aus ATC (RADAR)
Sat 12:21:39 AM -26.4145 152.7892 90° East 93 107 3,500  Climbing Aus ATC (RADAR)
Sat 12:23:39 AM -26.4059 152.8468 81° East 97 112 3,400 -51 Descending Aus ATC (RADAR)
Sat 12:25:34 AM -26.4094 152.8970 94° East 92 106 3,300 -229 Descending Aus ATC (RADAR)
Sat 12:27:09 AM -26.4386 152.9315 133° Southeast 98 113 2,600 -393 Descending Aus ATC (RADAR)
Sat 12:29:08 AM -26.4810 152.9630 146° Southeast 90 104 1,900 -251 Descending Aus ATC (RADAR)
Sat 12:31:08 AM -26.5230 152.9952 146° Southeast 90 104 1,600 -140 Descending Aus ATC (RADAR)
Sat 12:32:43 AM -26.5522 153.0210 142° Southeast 80 92 1,400 -251 Descending Aus ATC (RADAR)
Sat 12:34:43 AM -26.5804 153.0564 132° Southeast 76 87 700 -343 Descending Aus ATC (RADAR)
Sat 12:36:13 AM -26.5960 153.0792 127° Southeast 58 67 200 110 Descending Aus ATC (RADAR)
Sat 12:38:22 AM -26.6241 153.0895 162° South 72 83 1,100 482 Climbing Aus ATC (RADAR)
Sat 12:40:22 AM -26.6668 153.0852 185° South 90 104 2,200 443 Climbing Aus ATC (RADAR)
Sat 12:42:12 AM -26.7136 153.0799 186° South 91 105 2,800 229 Climbing Aus ATC (RADAR)
Sat 12:43:52 AM -26.7586 153.0746 186° South 105 121 3,000 140 Climbing Aus ATC (RADAR)
Sat 12:45:47 AM -26.8116 153.0686 186° South 94 108 3,300 157 Climbing Aus ATC (RADAR)
Sat 12:47:42 AM -26.8635 153.0688 180° South 105 121 3,600 57 Climbing Aus ATC (RADAR)
Sat 12:49:16 AM -26.8856 153.0682 181° South 101 116 3,500 -28 Descending Aus ATC (RADAR)
Sat 12:51:16 AM -26.9059 153.0752 163° South 67 77 3,500  Level Aus ATC (RADAR)
Sat 12:53:11 AM -26.9296 153.0763 178° South 52 60 3,500 -27 Level Aus ATC (RADAR)
Sat 12:54:56 AM -26.9453 153.0767 179° South 59 68 3,400 -240 Descending Aus ATC (RADAR)
Sat 12:56:56 AM -26.9884 153.0578 201° Southwest 96 110 2,600 -377 Descending Aus ATC (RADAR)
Sat 12:58:55 AM -27.0455 153.0522 185° South 102 117 1,900 -268 Descending Aus ATC (RADAR)
Sat 01:00:40 AM -27.0928 153.0511 181° South 94 108 1,600 -77 Descending Aus ATC (RADAR)
Sat 01:02:50 AM -27.1501 153.0468 184° South 95 109 1,600 -25 Level Aus ATC (RADAR)
Sat 01:04:40 AM -27.1965 153.0555 170° South 86 99 1,500 -140 Descending Aus ATC (RADAR)
Sat 01:06:25 AM -27.1923 153.0714 74° East 107 123 1,100 -229 Descending Aus ATC (RADAR)
Sat 01:10:00 AM -27.1615 153.0363 315° West  Level FlightAware Approximate
Sat 01:17:00 AM -27.0175 152.8727 315° West  Level FlightAware Approximate
Sat 01:18:00 AM -26.9969 152.8493 315° West  Level FlightAware Approximate
Sat 01:19:00 AM -26.9763 152.8260 315° West  Level FlightAware Approximate
Sat 01:20:00 AM -26.9557 152.8027 315° West  Level FlightAware Approximate
Sat 01:21:00 AM -26.9351 152.7794 315° West  Level FlightAware Approximate
Sat 01:22:00 AM -26.9145 152.7561 315° West  Level FlightAware Approximate
Sat 01:23:00 AM -26.8939 152.7328 315° West  Level FlightAware Approximate
Sat 01:24:00 AM -26.8733 152.7095 315° West  Level FlightAware Approximate
Sat 01:25:00 AM -26.8527 152.6862 315° West  Level FlightAware Approximate
Sat 01:26:00 AM -26.8320 152.6629 315° West  Level FlightAware Approximate
Sat 01:27:00 AM -26.8114 152.6397 315° West  Level FlightAware Approximate

Login

Don't have an account? Register now (free) for customized features, flight alerts, and more!